sensor_id;sensor_type;location;lat;lon;timestamp;P1;durP1;ratioP1;P2;durP2;ratioP2
15061;SDS011;7630;50.306;8.566;2023-02-17T00:06:40;33.07;;;29.47;;
15061;SDS011;7630;50.306;8.566;2023-02-17T00:10:41;29.93;;;26.90;;
15061;SDS011;7630;50.306;8.566;2023-02-17T00:14:43;36.73;;;31.77;;
15061;SDS011;7630;50.306;8.566;2023-02-17T00:18:44;39.23;;;35.13;;
15061;SDS011;7630;50.306;8.566;2023-02-17T00:22:46;50.83;;;40.20;;
15061;SDS011;7630;50.306;8.566;2023-02-17T00:26:47;40.37;;;35.90;;
15061;SDS011;7630;50.306;8.566;2023-02-17T00:30:48;44.07;;;38.20;;
15061;SDS011;7630;50.306;8.566;2023-02-17T00:34:50;36.83;;;32.93;;
15061;SDS011;7630;50.306;8.566;2023-02-17T00:38:53;39.07;;;34.93;;
15061;SDS011;7630;50.306;8.566;2023-02-17T00:42:56;36.93;;;33.13;;
15061;SDS011;7630;50.306;8.566;2023-02-17T00:46:57;38.70;;;34.67;;
15061;SDS011;7630;50.306;8.566;2023-02-17T00:50:58;40.17;;;32.33;;
15061;SDS011;7630;50.306;8.566;2023-02-17T00:54:59;33.90;;;30.23;;
15061;SDS011;7630;50.306;8.566;2023-02-17T00:59:00;30.10;;;26.93;;
15061;SDS011;7630;50.306;8.566;2023-02-17T01:03:01;29.67;;;25.23;;
15061;SDS011;7630;50.306;8.566;2023-02-17T01:07:03;22.47;;;20.47;;
15061;SDS011;7630;50.306;8.566;2023-02-17T01:15:19;20.67;;;18.67;;
15061;SDS011;7630;50.306;8.566;2023-02-17T01:19:20;21.03;;;18.57;;
15061;SDS011;7630;50.306;8.566;2023-02-17T01:23:21;26.53;;;18.93;;
15061;SDS011;7630;50.306;8.566;2023-02-17T01:27:22;21.63;;;19.53;;
15061;SDS011;7630;50.306;8.566;2023-02-17T01:31:24;26.43;;;17.33;;
15061;SDS011;7630;50.306;8.566;2023-02-17T01:35:28;21.40;;;19.37;;
15061;SDS011;7630;50.306;8.566;2023-02-17T01:39:30;22.13;;;20.12;;
15061;SDS011;7630;50.306;8.566;2023-02-17T01:43:31;19.50;;;17.80;;
15061;SDS011;7630;50.306;8.566;2023-02-17T01:47:32;20.37;;;17.83;;
15061;SDS011;7630;50.306;8.566;2023-02-17T01:51:34;20.93;;;19.00;;
15061;SDS011;7630;50.306;8.566;2023-02-17T01:55:38;22.73;;;17.43;;
15061;SDS011;7630;50.306;8.566;2023-02-17T01:59:41;19.57;;;17.73;;
15061;SDS011;7630;50.306;8.566;2023-02-17T02:03:42;21.33;;;18.63;;
15061;SDS011;7630;50.306;8.566;2023-02-17T02:07:44;20.43;;;16.73;;
15061;SDS011;7630;50.306;8.566;2023-02-17T02:11:48;20.00;;;17.87;;
15061;SDS011;7630;50.306;8.566;2023-02-17T02:15:56;18.17;;;16.43;;
15061;SDS011;7630;50.306;8.566;2023-02-17T02:20:46;19.67;;;17.47;;
15061;SDS011;7630;50.306;8.566;2023-02-17T02:33:11;17.60;;;15.90;;
15061;SDS011;7630;50.306;8.566;2023-02-17T02:37:20;17.70;;;14.23;;
15061;SDS011;7630;50.306;8.566;2023-02-17T02:45:36;16.23;;;14.67;;
15061;SDS011;7630;50.306;8.566;2023-02-17T02:49:37;17.30;;;15.70;;
15061;SDS011;7630;50.306;8.566;2023-02-17T03:02:40;15.87;;;14.37;;
15061;SDS011;7630;50.306;8.566;2023-02-17T03:06:52;16.50;;;15.00;;
15061;SDS011;7630;50.306;8.566;2023-02-17T03:10:57;18.10;;;16.33;;
15061;SDS011;7630;50.306;8.566;2023-02-17T03:15:03;16.10;;;14.40;;
15061;SDS011;7630;50.306;8.566;2023-02-17T03:19:07;18.83;;;16.97;;
15061;SDS011;7630;50.306;8.566;2023-02-17T03:23:09;17.67;;;16.07;;
15061;SDS011;7630;50.306;8.566;2023-02-17T03:27:10;17.73;;;15.83;;
15061;SDS011;7630;50.306;8.566;2023-02-17T03:31:11;18.47;;;16.63;;
15061;SDS011;7630;50.306;8.566;2023-02-17T03:35:13;19.90;;;17.97;;
15061;SDS011;7630;50.306;8.566;2023-02-17T03:39:14;25.80;;;22.63;;
15061;SDS011;7630;50.306;8.566;2023-02-17T03:43:16;25.10;;;21.77;;
15061;SDS011;7630;50.306;8.566;2023-02-17T03:47:18;20.13;;;18.10;;
15061;SDS011;7630;50.306;8.566;2023-02-17T03:51:20;16.93;;;15.23;;
15061;SDS011;7630;50.306;8.566;2023-02-17T03:55:22;16.50;;;14.90;;
15061;SDS011;7630;50.306;8.566;2023-02-17T03:59:23;16.53;;;15.03;;
15061;SDS011;7630;50.306;8.566;2023-02-17T04:03:25;16.87;;;15.27;;
15061;SDS011;7630;50.306;8.566;2023-02-17T04:07:26;17.83;;;15.77;;
15061;SDS011;7630;50.306;8.566;2023-02-17T04:11:27;16.53;;;14.67;;
15061;SDS011;7630;50.306;8.566;2023-02-17T04:15:29;15.67;;;14.30;;
15061;SDS011;7630;50.306;8.566;2023-02-17T04:19:30;16.27;;;14.70;;
15061;SDS011;7630;50.306;8.566;2023-02-17T04:23:31;14.83;;;13.53;;
15061;SDS011;7630;50.306;8.566;2023-02-17T04:27:34;15.13;;;13.57;;
15061;SDS011;7630;50.306;8.566;2023-02-17T04:31:35;14.10;;;12.70;;
15061;SDS011;7630;50.306;8.566;2023-02-17T04:35:37;14.63;;;13.30;;
15061;SDS011;7630;50.306;8.566;2023-02-17T04:39:38;12.73;;;11.53;;
15061;SDS011;7630;50.306;8.566;2023-02-17T04:43:39;15.90;;;12.83;;
15061;SDS011;7630;50.306;8.566;2023-02-17T04:47:40;13.27;;;12.13;;
15061;SDS011;7630;50.306;8.566;2023-02-17T04:51:41;13.27;;;11.97;;
15061;SDS011;7630;50.306;8.566;2023-02-17T04:55:42;12.47;;;11.37;;
15061;SDS011;7630;50.306;8.566;2023-02-17T04:59:44;11.50;;;10.60;;
15061;SDS011;7630;50.306;8.566;2023-02-17T05:03:45;11.13;;;10.13;;
15061;SDS011;7630;50.306;8.566;2023-02-17T05:07:46;11.53;;;10.40;;
15061;SDS011;7630;50.306;8.566;2023-02-17T05:11:48;9.93;;;9.03;;
15061;SDS011;7630;50.306;8.566;2023-02-17T05:15:49;8.80;;;8.00;;
15061;SDS011;7630;50.306;8.566;2023-02-17T05:19:50;9.23;;;8.43;;
15061;SDS011;7630;50.306;8.566;2023-02-17T05:23:51;10.17;;;8.83;;
15061;SDS011;7630;50.306;8.566;2023-02-17T05:27:52;8.90;;;8.07;;
15061;SDS011;7630;50.306;8.566;2023-02-17T05:31:53;9.03;;;8.27;;
15061;SDS011;7630;50.306;8.566;2023-02-17T05:36:05;8.50;;;7.80;;
15061;SDS011;7630;50.306;8.566;2023-02-17T05:40:04;6.30;;;5.87;;
15061;SDS011;7630;50.306;8.566;2023-02-17T05:44:07;7.73;;;7.10;;
15061;SDS011;7630;50.306;8.566;2023-02-17T05:48:08;7.25;;;6.75;;
15061;SDS011;7630;50.306;8.566;2023-02-17T05:56:33;5.73;;;5.33;;
15061;SDS011;7630;50.306;8.566;2023-02-17T06:00:34;6.07;;;5.57;;
15061;SDS011;7630;50.306;8.566;2023-02-17T06:04:35;6.03;;;5.53;;
15061;SDS011;7630;50.306;8.566;2023-02-17T06:08:37;5.77;;;5.37;;
15061;SDS011;7630;50.306;8.566;2023-02-17T06:12:39;5.37;;;4.87;;
15061;SDS011;7630;50.306;8.566;2023-02-17T06:16:40;4.83;;;4.53;;
15061;SDS011;7630;50.306;8.566;2023-02-17T06:20:41;5.47;;;5.07;;
15061;SDS011;7630;50.306;8.566;2023-02-17T06:24:42;5.63;;;5.27;;
15061;SDS011;7630;50.306;8.566;2023-02-17T06:28:43;5.57;;;5.17;;
15061;SDS011;7630;50.306;8.566;2023-02-17T06:32:44;5.33;;;4.93;;
15061;SDS011;7630;50.306;8.566;2023-02-17T06:36:45;5.80;;;5.30;;
15061;SDS011;7630;50.306;8.566;2023-02-17T06:40:46;5.13;;;4.73;;
15061;SDS011;7630;50.306;8.566;2023-02-17T06:44:47;5.37;;;4.97;;
15061;SDS011;7630;50.306;8.566;2023-02-17T06:48:48;5.10;;;4.70;;
15061;SDS011;7630;50.306;8.566;2023-02-17T06:52:49;5.10;;;4.70;;
15061;SDS011;7630;50.306;8.566;2023-02-17T06:56:50;5.13;;;4.77;;
15061;SDS011;7630;50.306;8.566;2023-02-17T07:00:51;5.10;;;4.77;;
15061;SDS011;7630;50.306;8.566;2023-02-17T07:04:52;5.97;;;5.47;;
15061;SDS011;7630;50.306;8.566;2023-02-17T07:08:53;5.87;;;5.37;;
15061;SDS011;7630;50.306;8.566;2023-02-17T07:12:55;5.53;;;5.03;;
15061;SDS011;7630;50.306;8.566;2023-02-17T07:16:56;5.80;;;5.13;;
15061;SDS011;7630;50.306;8.566;2023-02-17T07:20:57;6.17;;;5.67;;
15061;SDS011;7630;50.306;8.566;2023-02-17T07:24:58;6.13;;;5.63;;
15061;SDS011;7630;50.306;8.566;2023-02-17T07:28:59;6.67;;;6.07;;
15061;SDS011;7630;50.306;8.566;2023-02-17T07:33:01;6.83;;;6.27;;
15061;SDS011;7630;50.306;8.566;2023-02-17T07:37:02;7.70;;;7.10;;
15061;SDS011;7630;50.306;8.566;2023-02-17T07:41:09;7.60;;;7.00;;
15061;SDS011;7630;50.306;8.566;2023-02-17T07:45:08;7.63;;;6.93;;
15061;SDS011;7630;50.306;8.566;2023-02-17T07:49:10;9.23;;;8.47;;
15061;SDS011;7630;50.306;8.566;2023-02-17T07:53:12;10.27;;;9.23;;
15061;SDS011;7630;50.306;8.566;2023-02-17T07:57:13;10.00;;;9.20;;
15061;SDS011;7630;50.306;8.566;2023-02-17T08:01:17;9.27;;;8.57;;
15061;SDS011;7630;50.306;8.566;2023-02-17T08:05:20;9.60;;;8.80;;
15061;SDS011;7630;50.306;8.566;2023-02-17T08:09:22;10.43;;;9.53;;
15061;SDS011;7630;50.306;8.566;2023-02-17T08:13:41;10.37;;;9.20;;
15061;SDS011;7630;50.306;8.566;2023-02-17T08:17:45;10.60;;;9.57;;
15061;SDS011;7630;50.306;8.566;2023-02-17T08:21:50;10.30;;;8.93;;
15061;SDS011;7630;50.306;8.566;2023-02-17T08:25:52;10.60;;;9.73;;
15061;SDS011;7630;50.306;8.566;2023-02-17T08:29:53;10.70;;;9.80;;
15061;SDS011;7630;50.306;8.566;2023-02-17T08:33:56;10.77;;;9.67;;
15061;SDS011;7630;50.306;8.566;2023-02-17T08:38:00;10.03;;;9.13;;
15061;SDS011;7630;50.306;8.566;2023-02-17T08:42:04;9.63;;;8.77;;
15061;SDS011;7630;50.306;8.566;2023-02-17T08:46:08;10.63;;;9.77;;
15061;SDS011;7630;50.306;8.566;2023-02-17T08:50:11;11.80;;;10.77;;
15061;SDS011;7630;50.306;8.566;2023-02-17T08:54:15;9.90;;;9.03;;
15061;SDS011;7630;50.306;8.566;2023-02-17T08:58:18;11.60;;;10.60;;
15061;SDS011;7630;50.306;8.566;2023-02-17T09:02:19;11.73;;;10.83;;
15061;SDS011;7630;50.306;8.566;2023-02-17T09:06:21;10.43;;;9.40;;
15061;SDS011;7630;50.306;8.566;2023-02-17T09:10:22;10.40;;;9.60;;
15061;SDS011;7630;50.306;8.566;2023-02-17T09:14:23;9.60;;;8.70;;
15061;SDS011;7630;50.306;8.566;2023-02-17T09:18:25;7.10;;;6.60;;
15061;SDS011;7630;50.306;8.566;2023-02-17T09:22:26;7.63;;;6.93;;
15061;SDS011;7630;50.306;8.566;2023-02-17T09:26:29;8.37;;;7.77;;
15061;SDS011;7630;50.306;8.566;2023-02-17T09:30:31;10.17;;;9.27;;
15061;SDS011;7630;50.306;8.566;2023-02-17T09:34:33;9.93;;;9.07;;
15061;SDS011;7630;50.306;8.566;2023-02-17T09:38:37;9.50;;;8.70;;
15061;SDS011;7630;50.306;8.566;2023-02-17T09:42:39;10.30;;;9.40;;
15061;SDS011;7630;50.306;8.566;2023-02-17T09:46:43;12.10;;;8.67;;
15061;SDS011;7630;50.306;8.566;2023-02-17T09:55:09;8.37;;;7.77;;
15061;SDS011;7630;50.306;8.566;2023-02-17T10:03:40;8.03;;;7.40;;
15061;SDS011;7630;50.306;8.566;2023-02-17T10:07:52;8.47;;;7.73;;
15061;SDS011;7630;50.306;8.566;2023-02-17T10:12:00;8.50;;;7.73;;
15061;SDS011;7630;50.306;8.566;2023-02-17T10:16:19;7.80;;;7.10;;
15061;SDS011;7630;50.306;8.566;2023-02-17T10:20:35;8.70;;;7.90;;
15061;SDS011;7630;50.306;8.566;2023-02-17T10:24:38;8.43;;;7.77;;
15061;SDS011;7630;50.306;8.566;2023-02-17T10:37:23;7.53;;;6.93;;
15061;SDS011;7630;50.306;8.566;2023-02-17T10:41:35;7.83;;;7.07;;
15061;SDS011;7630;50.306;8.566;2023-02-17T10:45:46;5.70;;;5.30;;
15061;SDS011;7630;50.306;8.566;2023-02-17T10:49:48;6.17;;;5.57;;
15061;SDS011;7630;50.306;8.566;2023-02-17T10:53:53;6.53;;;6.03;;
15061;SDS011;7630;50.306;8.566;2023-02-17T10:58:02;6.23;;;5.73;;
15061;SDS011;7630;50.306;8.566;2023-02-17T11:02:13;5.17;;;4.60;;
15061;SDS011;7630;50.306;8.566;2023-02-17T11:06:17;6.00;;;5.40;;
15061;SDS011;7630;50.306;8.566;2023-02-17T11:10:23;5.67;;;5.20;;
15061;SDS011;7630;50.306;8.566;2023-02-17T11:14:29;5.27;;;4.87;;
15061;SDS011;7630;50.306;8.566;2023-02-17T11:18:32;5.50;;;5.00;;
15061;SDS011;7630;50.306;8.566;2023-02-17T11:22:37;4.50;;;4.20;;
15061;SDS011;7630;50.306;8.566;2023-02-17T11:26:41;4.83;;;4.43;;
15061;SDS011;7630;50.306;8.566;2023-02-17T11:30:48;4.53;;;4.10;;
15061;SDS011;7630;50.306;8.566;2023-02-17T11:34:54;4.90;;;4.60;;
15061;SDS011;7630;50.306;8.566;2023-02-17T11:38:52;4.17;;;3.87;;
15061;SDS011;7630;50.306;8.566;2023-02-17T11:42:54;3.90;;;3.60;;
15061;SDS011;7630;50.306;8.566;2023-02-17T11:47:08;4.57;;;4.17;;
15061;SDS011;7630;50.306;8.566;2023-02-17T12:04:22;3.50;;;3.03;;
15061;SDS011;7630;50.306;8.566;2023-02-17T12:13:28;4.03;;;3.73;;
15061;SDS011;7630;50.306;8.566;2023-02-17T12:30:26;3.87;;;3.57;;
15061;SDS011;7630;50.306;8.566;2023-02-17T12:38:54;3.97;;;3.60;;
15061;SDS011;7630;50.306;8.566;2023-02-17T12:43:05;2.73;;;2.53;;
15061;SDS011;7630;50.306;8.566;2023-02-17T12:47:07;2.23;;;2.13;;
15061;SDS011;7630;50.306;8.566;2023-02-17T12:51:20;2.50;;;2.20;;
15061;SDS011;7630;50.306;8.566;2023-02-17T12:56:06;2.63;;;2.43;;
15061;SDS011;7630;50.306;8.566;2023-02-17T12:59:40;1.77;;;1.67;;
15061;SDS011;7630;50.306;8.566;2023-02-17T13:03:46;1.77;;;1.67;;
15061;SDS011;7630;50.306;8.566;2023-02-17T13:07:54;2.20;;;2.10;;
15061;SDS011;7630;50.306;8.566;2023-02-17T13:12:06;2.03;;;1.93;;
15061;SDS011;7630;50.306;8.566;2023-02-17T13:16:24;1.63;;;1.53;;
15061;SDS011;7630;50.306;8.566;2023-02-17T13:20:36;1.73;;;1.63;;
15061;SDS011;7630;50.306;8.566;2023-02-17T13:24:52;6.83;;;1.87;;
15061;SDS011;7630;50.306;8.566;2023-02-17T13:41:45;1.70;;;1.60;;
15061;SDS011;7630;50.306;8.566;2023-02-17T13:45:48;1.83;;;1.73;;
15061;SDS011;7630;50.306;8.566;2023-02-17T13:50:01;2.40;;;1.40;;
15061;SDS011;7630;50.306;8.566;2023-02-17T13:54:04;1.67;;;1.57;;
15061;SDS011;7630;50.306;8.566;2023-02-17T13:58:08;2.13;;;1.60;;
15061;SDS011;7630;50.306;8.566;2023-02-17T14:02:16;1.50;;;1.40;;
15061;SDS011;7630;50.306;8.566;2023-02-17T14:06:32;2.17;;;2.07;;
15061;SDS011;7630;50.306;8.566;2023-02-17T14:10:38;1.90;;;1.80;;
15061;SDS011;7630;50.306;8.566;2023-02-17T14:14:39;1.30;;;1.20;;
15061;SDS011;7630;50.306;8.566;2023-02-17T14:18:41;1.20;;;1.20;;
15061;SDS011;7630;50.306;8.566;2023-02-17T14:22:42;1.67;;;1.57;;
15061;SDS011;7630;50.306;8.566;2023-02-17T14:26:46;2.17;;;1.20;;
15061;SDS011;7630;50.306;8.566;2023-02-17T14:30:48;4.87;;;1.50;;
15061;SDS011;7630;50.306;8.566;2023-02-17T14:34:51;1.23;;;1.23;;
15061;SDS011;7630;50.306;8.566;2023-02-17T14:38:55;2.80;;;1.77;;
15061;SDS011;7630;50.306;8.566;2023-02-17T14:42:58;1.43;;;1.33;;
15061;SDS011;7630;50.306;8.566;2023-02-17T14:46:59;1.33;;;1.27;;
15061;SDS011;7630;50.306;8.566;2023-02-17T14:51:00;1.20;;;1.10;;
15061;SDS011;7630;50.306;8.566;2023-02-17T14:55:01;1.33;;;1.30;;
15061;SDS011;7630;50.306;8.566;2023-02-17T14:59:03;1.50;;;1.40;;
15061;SDS011;7630;50.306;8.566;2023-02-17T15:03:04;1.40;;;1.40;;
15061;SDS011;7630;50.306;8.566;2023-02-17T15:07:14;1.50;;;1.40;;
15061;SDS011;7630;50.306;8.566;2023-02-17T15:11:30;2.70;;;1.37;;
15061;SDS011;7630;50.306;8.566;2023-02-17T15:15:34;2.67;;;2.47;;
15061;SDS011;7630;50.306;8.566;2023-02-17T15:19:38;1.33;;;1.23;;
15061;SDS011;7630;50.306;8.566;2023-02-17T15:23:39;1.83;;;1.40;;
15061;SDS011;7630;50.306;8.566;2023-02-17T15:27:41;1.43;;;1.00;;
15061;SDS011;7630;50.306;8.566;2023-02-17T15:31:43;3.90;;;1.60;;
15061;SDS011;7630;50.306;8.566;2023-02-17T15:35:47;1.60;;;1.50;;
15061;SDS011;7630;50.306;8.566;2023-02-17T15:39:52;0.80;;;0.80;;
15061;SDS011;7630;50.306;8.566;2023-02-17T15:43:54;1.57;;;1.47;;
15061;SDS011;7630;50.306;8.566;2023-02-17T15:48:09;1.67;;;1.57;;
15061;SDS011;7630;50.306;8.566;2023-02-17T15:52:09;1.30;;;1.20;;
15061;SDS011;7630;50.306;8.566;2023-02-17T16:00:27;1.67;;;1.57;;
15061;SDS011;7630;50.306;8.566;2023-02-17T16:04:31;2.27;;;1.90;;
15061;SDS011;7630;50.306;8.566;2023-02-17T16:08:32;1.93;;;1.83;;
15061;SDS011;7630;50.306;8.566;2023-02-17T16:12:33;1.80;;;1.70;;
15061;SDS011;7630;50.306;8.566;2023-02-17T16:16:36;4.60;;;2.20;;
15061;SDS011;7630;50.306;8.566;2023-02-17T16:20:37;1.93;;;1.80;;
15061;SDS011;7630;50.306;8.566;2023-02-17T16:24:38;3.00;;;2.10;;
15061;SDS011;7630;50.306;8.566;2023-02-17T16:28:39;2.17;;;2.07;;
15061;SDS011;7630;50.306;8.566;2023-02-17T16:32:41;1.93;;;1.83;;
15061;SDS011;7630;50.306;8.566;2023-02-17T16:36:42;1.77;;;1.67;;
15061;SDS011;7630;50.306;8.566;2023-02-17T16:40:45;2.00;;;1.90;;
15061;SDS011;7630;50.306;8.566;2023-02-17T16:44:48;2.50;;;2.30;;
15061;SDS011;7630;50.306;8.566;2023-02-17T16:48:49;2.60;;;2.40;;
15061;SDS011;7630;50.306;8.566;2023-02-17T16:52:51;2.50;;;1.97;;
15061;SDS011;7630;50.306;8.566;2023-02-17T16:56:53;2.10;;;2.00;;
15061;SDS011;7630;50.306;8.566;2023-02-17T17:00:56;3.22;;;2.33;;
15061;SDS011;7630;50.306;8.566;2023-02-17T17:04:57;2.57;;;1.90;;
15061;SDS011;7630;50.306;8.566;2023-02-17T17:08:58;3.17;;;2.40;;
15061;SDS011;7630;50.306;8.566;2023-02-17T17:13:00;4.27;;;2.40;;
15061;SDS011;7630;50.306;8.566;2023-02-17T17:17:02;2.37;;;2.20;;
15061;SDS011;7630;50.306;8.566;2023-02-17T17:21:05;2.30;;;2.10;;
15061;SDS011;7630;50.306;8.566;2023-02-17T17:25:07;2.50;;;2.40;;
15061;SDS011;7630;50.306;8.566;2023-02-17T17:29:09;3.77;;;2.93;;
15061;SDS011;7630;50.306;8.566;2023-02-17T17:33:12;3.87;;;3.53;;
15061;SDS011;7630;50.306;8.566;2023-02-17T17:37:13;2.77;;;2.57;;
15061;SDS011;7630;50.306;8.566;2023-02-17T17:41:14;2.70;;;2.10;;
15061;SDS011;7630;50.306;8.566;2023-02-17T17:45:15;3.30;;;3.00;;
15061;SDS011;7630;50.306;8.566;2023-02-17T17:49:17;3.17;;;2.40;;
15061;SDS011;7630;50.306;8.566;2023-02-17T17:53:18;2.93;;;2.73;;
15061;SDS011;7630;50.306;8.566;2023-02-17T17:57:19;3.33;;;3.10;;
15061;SDS011;7630;50.306;8.566;2023-02-17T18:01:22;4.17;;;3.77;;
15061;SDS011;7630;50.306;8.566;2023-02-17T18:05:23;5.23;;;3.57;;
15061;SDS011;7630;50.306;8.566;2023-02-17T18:09:26;5.10;;;4.70;;
15061;SDS011;7630;50.306;8.566;2023-02-17T18:13:31;8.87;;;7.70;;
15061;SDS011;7630;50.306;8.566;2023-02-17T18:17:32;5.20;;;4.80;;
15061;SDS011;7630;50.306;8.566;2023-02-17T18:21:36;5.23;;;4.83;;
15061;SDS011;7630;50.306;8.566;2023-02-17T18:25:39;6.00;;;5.50;;
15061;SDS011;7630;50.306;8.566;2023-02-17T18:29:40;6.97;;;6.30;;
15061;SDS011;7630;50.306;8.566;2023-02-17T18:33:41;6.70;;;6.10;;
15061;SDS011;7630;50.306;8.566;2023-02-17T18:37:44;6.97;;;6.43;;
15061;SDS011;7630;50.306;8.566;2023-02-17T18:41:45;6.97;;;6.47;;
15061;SDS011;7630;50.306;8.566;2023-02-17T18:45:47;6.20;;;5.70;;
15061;SDS011;7630;50.306;8.566;2023-02-17T18:49:49;7.50;;;6.90;;
15061;SDS011;7630;50.306;8.566;2023-02-17T18:53:51;7.50;;;6.90;;
15061;SDS011;7630;50.306;8.566;2023-02-17T18:57:54;8.50;;;7.83;;
15061;SDS011;7630;50.306;8.566;2023-02-17T19:01:55;8.17;;;7.47;;
15061;SDS011;7630;50.306;8.566;2023-02-17T19:06:07;8.97;;;8.23;;
15061;SDS011;7630;50.306;8.566;2023-02-17T19:10:10;12.67;;;11.37;;
15061;SDS011;7630;50.306;8.566;2023-02-17T19:14:13;10.50;;;9.63;;
15061;SDS011;7630;50.306;8.566;2023-02-17T19:18:14;12.03;;;10.83;;
15061;SDS011;7630;50.306;8.566;2023-02-17T19:22:16;57.70;;;50.73;;
15061;SDS011;7630;50.306;8.566;2023-02-17T19:26:18;9.98;;;9.23;;
15061;SDS011;7630;50.306;8.566;2023-02-17T19:30:19;11.33;;;10.43;;
15061;SDS011;7630;50.306;8.566;2023-02-17T19:34:21;9.30;;;8.50;;
15061;SDS011;7630;50.306;8.566;2023-02-17T19:38:22;9.53;;;8.77;;
15061;SDS011;7630;50.306;8.566;2023-02-17T19:42:24;9.30;;;8.50;;
15061;SDS011;7630;50.306;8.566;2023-02-17T19:46:25;9.43;;;8.63;;
15061;SDS011;7630;50.306;8.566;2023-02-17T19:50:26;7.67;;;7.07;;
15061;SDS011;7630;50.306;8.566;2023-02-17T19:54:28;8.20;;;7.57;;
15061;SDS011;7630;50.306;8.566;2023-02-17T19:58:29;9.53;;;8.80;;
15061;SDS011;7630;50.306;8.566;2023-02-17T20:02:30;11.73;;;10.83;;
15061;SDS011;7630;50.306;8.566;2023-02-17T20:06:33;12.00;;;11.00;;
15061;SDS011;7630;50.306;8.566;2023-02-17T20:10:37;9.07;;;8.33;;
15061;SDS011;7630;50.306;8.566;2023-02-17T20:14:40;8.70;;;8.00;;
15061;SDS011;7630;50.306;8.566;2023-02-17T20:18:43;7.10;;;6.60;;
15061;SDS011;7630;50.306;8.566;2023-02-17T20:22:46;7.17;;;6.67;;
15061;SDS011;7630;50.306;8.566;2023-02-17T20:26:47;6.77;;;6.27;;
15061;SDS011;7630;50.306;8.566;2023-02-17T20:30:50;6.10;;;5.57;;
15061;SDS011;7630;50.306;8.566;2023-02-17T20:34:51;7.73;;;7.13;;
15061;SDS011;7630;50.306;8.566;2023-02-17T20:38:53;6.93;;;6.37;;
15061;SDS011;7630;50.306;8.566;2023-02-17T20:42:54;8.83;;;8.07;;
15061;SDS011;7630;50.306;8.566;2023-02-17T20:46:55;8.73;;;8.03;;
15061;SDS011;7630;50.306;8.566;2023-02-17T20:50:57;8.93;;;8.13;;
15061;SDS011;7630;50.306;8.566;2023-02-17T20:54:58;8.83;;;8.13;;
15061;SDS011;7630;50.306;8.566;2023-02-17T20:59:00;16.13;;;14.33;;
15061;SDS011;7630;50.306;8.566;2023-02-17T21:03:01;9.57;;;8.87;;
15061;SDS011;7630;50.306;8.566;2023-02-17T21:07:02;10.33;;;9.53;;
15061;SDS011;7630;50.306;8.566;2023-02-17T21:11:04;9.80;;;8.90;;
15061;SDS011;7630;50.306;8.566;2023-02-17T21:15:05;10.23;;;9.33;;
15061;SDS011;7630;50.306;8.566;2023-02-17T21:19:06;9.80;;;9.00;;
15061;SDS011;7630;50.306;8.566;2023-02-17T21:23:07;11.37;;;10.27;;
15061;SDS011;7630;50.306;8.566;2023-02-17T21:27:08;10.53;;;9.70;;
15061;SDS011;7630;50.306;8.566;2023-02-17T21:31:10;11.33;;;10.37;;
15061;SDS011;7630;50.306;8.566;2023-02-17T21:35:11;10.37;;;9.43;;
15061;SDS011;7630;50.306;8.566;2023-02-17T21:39:12;12.17;;;11.17;;
15061;SDS011;7630;50.306;8.566;2023-02-17T21:43:14;16.07;;;13.97;;
15061;SDS011;7630;50.306;8.566;2023-02-17T21:47:34;13.50;;;12.30;;
15061;SDS011;7630;50.306;8.566;2023-02-17T21:51:36;12.93;;;11.90;;
15061;SDS011;7630;50.306;8.566;2023-02-17T21:55:39;13.60;;;12.27;;
15061;SDS011;7630;50.306;8.566;2023-02-17T21:59:40;11.60;;;10.60;;
15061;SDS011;7630;50.306;8.566;2023-02-17T22:03:43;12.03;;;10.87;;
15061;SDS011;7630;50.306;8.566;2023-02-17T22:07:48;12.97;;;11.63;;
15061;SDS011;7630;50.306;8.566;2023-02-17T22:11:50;12.67;;;11.33;;
15061;SDS011;7630;50.306;8.566;2023-02-17T22:15:57;12.20;;;10.97;;
15061;SDS011;7630;50.306;8.566;2023-02-17T22:19:58;12.37;;;11.37;;
15061;SDS011;7630;50.306;8.566;2023-02-17T22:24:00;12.27;;;11.30;;
15061;SDS011;7630;50.306;8.566;2023-02-17T22:28:01;11.57;;;10.57;;
15061;SDS011;7630;50.306;8.566;2023-02-17T22:32:02;10.17;;;8.40;;
15061;SDS011;7630;50.306;8.566;2023-02-17T22:36:05;7.47;;;6.87;;
15061;SDS011;7630;50.306;8.566;2023-02-17T22:40:09;6.70;;;6.20;;
15061;SDS011;7630;50.306;8.566;2023-02-17T22:44:10;5.33;;;4.93;;
15061;SDS011;7630;50.306;8.566;2023-02-17T22:48:11;4.80;;;4.37;;
15061;SDS011;7630;50.306;8.566;2023-02-17T22:52:12;3.90;;;3.60;;
15061;SDS011;7630;50.306;8.566;2023-02-17T22:56:13;3.63;;;3.43;;
15061;SDS011;7630;50.306;8.566;2023-02-17T23:00:15;4.57;;;4.27;;
15061;SDS011;7630;50.306;8.566;2023-02-17T23:04:17;3.43;;;2.87;;
15061;SDS011;7630;50.306;8.566;2023-02-17T23:08:18;2.60;;;2.40;;
15061;SDS011;7630;50.306;8.566;2023-02-17T23:12:19;2.90;;;2.70;;
15061;SDS011;7630;50.306;8.566;2023-02-17T23:16:20;2.53;;;2.43;;
15061;SDS011;7630;50.306;8.566;2023-02-17T23:20:22;2.43;;;2.33;;
15061;SDS011;7630;50.306;8.566;2023-02-17T23:24:24;2.40;;;2.27;;
15061;SDS011;7630;50.306;8.566;2023-02-17T23:28:26;2.20;;;2.00;;
15061;SDS011;7630;50.306;8.566;2023-02-17T23:32:27;3.23;;;3.03;;
15061;SDS011;7630;50.306;8.566;2023-02-17T23:36:28;2.83;;;1.80;;
15061;SDS011;7630;50.306;8.566;2023-02-17T23:40:30;1.97;;;1.87;;
15061;SDS011;7630;50.306;8.566;2023-02-17T23:44:31;2.43;;;2.30;;
15061;SDS011;7630;50.306;8.566;2023-02-17T23:48:32;2.43;;;2.23;;
15061;SDS011;7630;50.306;8.566;2023-02-17T23:52:33;2.10;;;2.00;;
15061;SDS011;7630;50.306;8.566;2023-02-17T23:56:34;1.90;;;1.80;;
